Last Month

Pierce College

Hourly Data | America/Los_Angeles
as of 9/20/21 4:59 AM PDT
Date & Time Temp Max (°F) Temp Min (°F) RH (%) Dew Pt (°F) Latest Rain (In) Soil Temp (°F) Soil Moist (%) Wind Spd (mph) Wind Dir (°) Wind Gust (mph) Leaf Wet Raw (mV) Net Radiation (W/m²) Evap Pan Max Wind (mph) Evap Pan H2O Max Temp (°F) Evap Pan Level (In)
8/31/21 - 2300 65.7 64.3 71 55.6 0.00 85.9 25.3 1.1 SSE | 158 3.5 270 -46 2.2 66.7 3.7
8/31/21 - 2200 66.2 65.6 69 55.6 0.00 85.9 25.3 1.4 S | 182 3.4 269 -33 2.4 67.5 3.7
8/31/21 - 2100 67.7 65.8 69 55.9 0.00 86.1 25.3 2.1 SSE | 168 5.3 269 -38 3.7 68.6 3.8
8/31/21 - 2000 71.1 67.4 62 56.0 0.00 86.1 25.3 1.4 E | 101 6.1 269 -46 4.3 73.2 3.8
8/31/21 - 1900 72.3 71.2 60 57.0 0.00 86.1 25.3 1.3 NE | 45 4.1 268 -1 1.6 75.7 3.8
8/31/21 - 1800 72.5 71.3 60 57.3 0.00 86.3 25.3 1.3 ENE | 70 4.4 268 16 2.4 78.1 3.8
8/31/21 - 1700 75.5 72.2 57 57.1 0.00 85.8 25.3 2.8 ESE | 116 8.1 267 39 4.7 84.2 3.8
8/31/21 - 1600 78.3 74.6 51 57.3 0.00 85.7 25.3 1.9 NE | 42 3.9 267 64 2.6 86.2 3.8
8/31/21 - 1500 82.2 77.6 46 57.4 0.00 85.5 25.3 2.2 ESE | 103 5.7 266 61 3.5 101.3 3.8
8/31/21 - 1400 87.4 81.8 41 58.3 0.00 85.5 25.2 2.3 ENE | 57 7.6 266 374 3.3 116.5 3.8
8/31/21 - 1300 85.7 78.4 44 57.3 0.00 85.1 25.1 1.4 NNW | 330 6.1 264 522 5.1 116.6 3.8
8/31/21 - 1200 78.8 75.1 49 56.8 0.00 85.6 25.1 1.4 NNE | 30 4.3 266 372 3.3 105.4 3.8
8/31/21 - 1100 75.3 69.5 60 58.3 0.00 85.5 25.2 1.7 ENE | 77 5.2 266 449 3.4 98.6 3.8
8/31/21 - 1000 69.5 65.7 76 58.6 0.00 85.5 25.3 1.3 E | 89 3.8 268 154 2.3 84.4 3.7
8/31/21 - 0900 66.4 64.3 78 58.3 0.00 85.6 25.3 1.2 E | 95 4.0 271 49 3.1 72.4 3.7
8/31/21 - 0800 64.6 64.1 79 57.7 0.00 85.7 25.3 1.5 ESE | 117 5.0 271 -4 4.1 67.4 3.7
8/31/21 - 0700 64.5 63.7 80 57.8 0.00 85.6 25.4 0.6 ENE | 77 2.3 272 -27 1.5 65.3 3.7
8/31/21 - 0600 65.0 64.0 78 57.6 0.00 86.4 25.4 0.8 ENE | 59 2.4 271 -23 1.1 65.8 3.7
8/31/21 - 0500 65.1 64.2 77 57.4 0.00 86.6 25.4 0.4 ENE | 60 2.2 271 -27 1.4 65.3 3.7
8/31/21 - 0400 65.1 64.3 77 57.4 0.00 86.9 25.5 0.5 ENE | 66 2.0 271 -41 1.1 64.0 3.7
8/31/21 - 0300 66.1 64.8 75 57.4 0.00 86.8 25.5 0.5 ENE | 72 3.4 271 -45 1.5 66.3 3.7
8/31/21 - 0200 66.3 65.8 74 57.6 0.00 87.6 25.5 1.0 NE | 56 2.8 270 -30 1.8 66.8 3.7
8/31/21 - 0100 66.8 66.1 73 57.6 0.00 87.2 25.5 1.1 NE | 55 2.8 270 -38 2.2 66.9 3.7
8/31/21 - 0000 66.9 66.2 73 57.4 0.00 87.4 25.6 0.7 ENE | 78 3.4 270 -45 1.8 66.0 3.7
8/30/21 - 2300 68.2 66.2 68 56.4 0.00 87.6 25.6 0.2 E | 93 1.8 269 -60 1.0 66.1 3.7
8/30/21 - 2200 70.9 67.7 61 55.0 0.00 87.7 25.6 0.9 NE | 44 2.9 268 -66 1.3 70.2 3.7
8/30/21 - 2100 76.1 70.7 50 54.1 0.00 87.5 25.6 0.9 ENE | 59 2.8 266 -69 1.3 74.1 3.8
8/30/21 - 2000 81.5 75.9 35 49.0 0.00 87.4 25.6 0.5 E | 93 2.8 265 -71 1.7 83.8 3.8
8/30/21 - 1900 83.6 81.3 32 50.0 0.00 87.4 25.5 1.3 NE | 41 4.8 264 -10 2.0 88.5 3.8
8/30/21 - 1800 87.5 82.6 35 53.9 0.00 86.8 25.5 2.2 NE | 48 5.3 264 108 2.5 99.8 3.8
8/30/21 - 1700 90.2 87.4 31 53.7 0.00 86.7 25.4 2.5 NE | 42 7.3 264 267 2.5 102.8 3.8
8/30/21 - 1600 91.7 88.1 30 54.0 0.00 86.2 25.3 2.8 NE | 46 6.7 264 380 3.0 107.2 3.8
8/30/21 - 1500 91.9 90.1 30 55.2 0.00 86.1 25.3 2.9 NE | 50 5.8 264 465 3.2 107.1 3.8
8/30/21 - 1400 90.7 88.7 30 54.2 0.00 83.5 25.2 2.8 NE | 46 7.5 264 531 4.0 118.9 3.8
8/30/21 - 1300 89.5 85.3 35 56.2 0.00 85.2 25.1 2.2 NE | 37 5.0 264 545 2.6 122.7 3.8
8/30/21 - 1200 85.6 82.5 40 57.2 0.00 84.1 25.1 2.5 NE | 51 7.4 264 510 2.7 119.7 3.8
8/30/21 - 1100 82.9 78.0 45 56.9 0.00 85.4 25.1 2.0 NE | 34 4.9 264 434 3.6 103.4 3.8
8/30/21 - 1000 78.5 75.3 50 56.5 0.00 85.1 25.2 1.8 NE | 38 5.2 264 325 2.2 90.6 3.8
8/30/21 - 0900 75.4 70.2 57 56.7 0.00 84.4 25.3 0.9 NNE | 33 3.5 266 233 2.3 85.8 3.7
8/30/21 - 0800 70.2 64.3 70 57.0 0.00 84.0 25.3 0.9 ESE | 103 3.1 268 49 1.8 71.2 3.7
8/30/21 - 0700 64.5 63.9 75 56.2 0.00 88.1 25.4 0.2 ESE | 107 2.7 271 -39 1.1 61.6 3.7
8/30/21 - 0600 65.2 64.0 73 55.9 0.00 86.9 25.5 0.2 ESE | 102 3.0 271 -51 0.9 60.3 3.7
8/30/21 - 0500 65.7 64.3 70 55.0 0.00 84.5 25.5 0.1 ESE | 118 1.3 270 -50 0.0 61.1 3.7
8/30/21 - 0400 66.7 65.3 67 54.7 0.00 87.5 25.5 0.6 S | 174 2.7 268 -51 1.3 62.4 3.7
8/30/21 - 0300 69.7 66.4 62 55.1 0.00 87.3 25.5 0.4 ENE | 76 2.3 268 -56 0.7 65.5 3.7
8/30/21 - 0200 71.3 69.5 58 54.9 0.00 87.6 25.5 0.7 NE | 56 3.3 267 -58 1.1 67.1 3.7
8/30/21 - 0100 73.2 70.6 39 45.1 0.00 88.8 25.6 0.1 ENE | 66 2.3 266 -56 0.0 66.9 3.7
8/30/21 - 0000 75.5 72.8 23 34.3 0.00 89.9 25.6 0.4 SSE | 156 2.0 264 -55 1.2 69.2 3.7
8/29/21 - 2300 79.3 74.8 21 34.4 0.00 90.8 25.6 0.7 SE | 130 4.0 263 -61 1.9 70.5 3.7
8/29/21 - 2200 79.6 76.6 30 43.1 0.00 87.8 25.7 0.8 S | 183 2.9 264 -64 2.1 70.6 3.8
8/29/21 - 2100 80.2 77.0 44 54.5 0.00 87.8 25.6 0.7 S | 186 3.5 265 -68 1.8 76.6 3.8
8/29/21 - 2000 86.8 80.2 39 55.2 0.00 87.7 25.6 0.9 ESE | 104 4.2 264 -76 2.0 87.2 3.8
8/29/21 - 1900 96.5 86.6 29 53.2 0.00 86.7 25.5 1.6 NE | 54 5.8 264 -15 3.9 99.2 3.8
8/29/21 - 1800 101.7 96.2 16 45.8 0.00 86.8 25.5 1.4 NW | 307 5.8 262 125 5.7 106.0 3.8
8/29/21 - 1700 105.0 101.6 14 45.6 0.00 86.5 25.3 1.6 NW | 318 8.7 262 268 5.4 111.7 3.8
8/29/21 - 1600 103.9 102.3 17 49.6 0.00 85.7 25.2 2.3 NNE | 31 5.3 262 387 3.0 114.3 3.8
8/29/21 - 1500 104.8 101.5 19 52.8 0.00 85.2 25.2 2.6 NE | 37 5.2 262 478 3.3 117.5 3.8
8/29/21 - 1400 102.5 100.8 21 55.0 0.00 85.1 25.1 2.7 ENE | 59 5.9 262 532 2.7 131.5 3.8
8/29/21 - 1300 102.4 97.8 18 49.4 0.00 84.5 25.0 1.6 NE | 53 5.1 262 545 2.9 138.6 3.8
8/29/21 - 1200 97.9 91.5 20 47.3 0.00 84.9 25.0 1.3 N | 354 4.1 262 517 3.1 134.8 3.8
8/29/21 - 1100 91.5 84.3 31 52.7 0.00 84.9 25.0 1.0 NW | 312 3.9 263 450 3.3 109.3 3.8
8/29/21 - 1000 84.3 77.9 42 55.7 0.00 84.9 25.1 0.8 NNE | 19 3.0 264 344 2.7 94.4 3.7
8/29/21 - 0900 78.7 71.2 51 55.7 0.00 85.2 25.2 1.0 E | 93 3.9 265 213 2.2 86.6 3.7
8/29/21 - 0800 71.4 63.3 64 54.3 0.00 85.4 25.3 0.2 SE | 144 1.9 269 37 0.9 65.2 3.7
8/29/21 - 0700 63.4 61.5 73 53.5 0.00 86.0 25.3 0.5 SSE | 161 2.3 270 -40 1.1 57.7 3.7
8/29/21 - 0600 63.9 62.4 69 52.9 0.00 85.9 25.4 0.4 SSE | 161 1.3 270 -47 0.0 58.0 3.7
8/29/21 - 0500 63.9 62.5 67 52.1 0.00 86.2 25.4 0.3 SE | 145 1.6 269 -48 0.6 57.6 3.7
8/29/21 - 0400 64.4 63.5 66 52.1 0.00 86.7 25.5 0.3 SSE | 160 1.3 269 -50 0.7 58.2 3.7
8/29/21 - 0300 65.0 63.9 63 51.6 0.00 86.5 25.5 0.4 SSE | 163 1.7 269 -53 1.2 58.6 3.7
8/29/21 - 0200 66.4 64.8 65 53.5 0.00 88.6 25.5 0.3 S | 172 1.1 269 -55 0.0 59.8 3.7
8/29/21 - 0100 67.9 66.4 68 56.1 0.00 87.2 25.5 0.3 SSE | 168 1.7 269 -57 1.0 60.3 3.7
8/29/21 - 0000 69.7 67.6 63 55.2 0.00 87.1 25.5 0.1 S | 180 1.4 268 -60 0.0 62.5 3.7
8/28/21 - 2300 70.9 69.5 56 53.7 0.00 87.0 25.5 0.3 SE | 125 2.3 267 -65 0.5 66.1 3.7
8/28/21 - 2200 74.4 70.8 49 52.3 0.00 87.2 25.6 0.2 E | 97 1.8 266 -70 0.6 71.1 3.8
8/28/21 - 2100 79.2 74.5 41 51.0 0.00 88.3 25.5 0.9 NE | 39 3.1 265 -78 1.5 76.3 3.8
8/28/21 - 2000 86.3 79.1 34 50.7 0.00 87.2 25.5 1.1 NNE | 18 4.1 264 -82 1.8 88.1 3.8
8/28/21 - 1900 96.2 86.3 22 46.0 0.00 86.6 25.5 2.2 SE | 144 6.0 263 -18 3.7 100.3 3.8
8/28/21 - 1800 100.0 96.0 7 23.9 0.00 85.6 25.4 3.6 SSE | 167 8.4 261 126 5.3 104.6 3.8
8/28/21 - 1700 101.8 98.8 6 21.9 0.00 85.2 25.3 4.9 SSE | 166 11.2 260 277 6.5 109.2 3.8
8/28/21 - 1600 104.6 101.3 8 30.8 0.00 82.7 25.2 3.6 SE | 129 8.4 261 399 6.1 110.4 3.8
8/28/21 - 1500 104.0 102.6 10 36.0 0.00 81.5 25.1 2.6 ENE | 61 7.9 262 482 4.1 117.5 3.8
8/28/21 - 1400 103.2 99.7 14 42.3 0.00 81.5 25.0 2.6 NE | 39 5.4 262 535 3.0 129.6 3.8
8/28/21 - 1300 99.9 95.0 20 49.6 0.00 83.1 24.9 1.9 NNE | 28 5.0 262 551 5.2 139.9 3.8
8/28/21 - 1200 96.3 90.7 22 48.7 0.00 82.4 24.9 1.3 NNE | 19 5.5 262 521 3.5 133.7 3.8
8/28/21 - 1100 90.9 83.3 29 50.6 0.00 83.1 24.9 0.9 NNE | 22 3.4 262 452 2.5 112.1 3.8
8/28/21 - 1000 84.4 76.9 37 52.3 0.00 84.4 25.1 0.7 NNE | 14 3.2 263 346 2.3 94.6 3.8
8/28/21 - 0900 77.7 72.1 46 53.2 0.00 84.6 25.1 0.7 NNE | 23 3.2 264 218 1.8 85.5 3.7
8/28/21 - 0800 72.1 61.2 64 52.5 0.00 85.3 25.2 0.1 NE | 46 1.0 269 28 0.4 60.7 3.7
8/28/21 - 0700 61.4 60.2 75 52.7 0.00 85.3 25.3 0.4 SSE | 155 1.2 271 -46 0.0 53.3 3.7
8/28/21 - 0600 62.0 60.4 73 52.5 0.00 85.5 25.3 0.3 SSE | 159 1.0 272 -53 0.5 53.0 3.7
8/28/21 - 0500 63.1 61.8 71 53.1 0.00 85.8 25.4 0.2 SSE | 159 1.0 272 -54 0.0 54.9 3.7
8/28/21 - 0400 64.4 62.9 69 53.4 0.00 85.8 25.4 0.4 SSE | 153 1.7 270 -57 0.0 56.9 3.7
8/28/21 - 0300 65.4 64.2 66 53.1 0.00 86.3 25.4 0.6 SSE | 157 1.8 269 -59 0.0 57.8 3.7
8/28/21 - 0200 68.4 65.4 63 53.8 0.00 86.2 25.5 0.2 SSE | 161 1.1 268 -60 0.0 60.2 3.7
8/28/21 - 0100 70.5 68.2 58 53.7 0.00 85.8 25.5 0.4 S | 171 1.8 268 -63 0.7 61.9 3.7
8/28/21 - 0000 72.7 70.3 50 51.6 0.00 86.3 25.5 0.1 SSE | 158 1.2 266 -64 0.0 64.6 3.7
8/27/21 - 2300 76.6 72.3 42 49.9 0.00 86.5 25.5 0.3 SSE | 168 1.1 265 -67 0.3 67.3 3.7
8/27/21 - 2200 79.9 76.2 39 51.0 0.00 86.4 25.5 0.2 SSE | 156 1.3 265 -70 1.2 72.8 3.7
8/27/21 - 2100 86.8 79.7 31 49.6 0.00 86.2 25.5 1.1 SSW | 209 4.4 264 -79 3.1 80.5 3.8
8/27/21 - 2000 92.7 86.6 20 42.4 0.00 85.9 25.5 2.5 W | 262 6.6 262 -86 4.7 92.5 3.8
8/27/21 - 1900 98.8 92.7 18 45.2 0.00 85.8 25.4 2.0 WNW | 294 7.9 262 -17 5.6 102.8 3.8
8/27/21 - 1800 101.7 98.3 11 35.9 0.00 85.1 25.3 3.1 SSW | 212 7.3 262 127 5.6 108.1 3.8
8/27/21 - 1700 102.7 101.4 6 23.2 0.00 84.7 25.2 2.9 S | 184 6.9 260 275 5.7 109.3 3.8
8/27/21 - 1600 102.4 101.0 7 24.7 0.00 84.1 25.1 4.0 S | 187 8.3 261 407 6.8 112.4 3.8
8/27/21 - 1500 104.4 101.4 8 28.7 0.00 83.8 25.0 3.5 SSE | 154 9.8 261 490 6.7 116.9 3.8
8/27/21 - 1400 103.7 100.6 10 33.7 0.00 83.7 24.9 2.7 NE | 51 7.1 261 539 3.5 132.9 3.8
8/27/21 - 1300 101.1 97.6 14 41.0 0.00 82.4 24.8 2.2 ENE | 60 7.1 261 553 3.7 136.7 3.8
8/27/21 - 1200 98.4 91.0 17 42.2 0.00 82.6 24.8 1.7 ENE | 72 5.1 262 524 4.0 134.9 3.8
8/27/21 - 1100 92.3 84.1 21 43.7 0.00 83.3 24.9 1.1 NNE | 16 4.6 262 457 2.9 112.5 3.8
8/27/21 - 1000 84.0 79.0 31 47.8 0.00 83.4 25.0 0.8 N | 358 3.0 263 352 2.4 98.6 3.8
8/27/21 - 0900 79.2 68.8 41 49.9 0.00 83.8 25.1 0.1 N | 0 1.6 264 220 0.7 85.2 3.7
8/27/21 - 0800 68.7 57.4 69 51.0 0.00 84.2 25.1 0.1 NE | 40 1.1 269 21 0.5 57.5 3.7
8/27/21 - 0700 57.8 57.2 78 50.6 0.00 84.2 25.2 0.1 SSE | 164 1.1 264 -41 0.0 48.2 3.7
8/27/21 - 0600 59.4 57.1 73 49.5 0.00 84.8 25.3 0.4 SSE | 166 1.8 271 -58 0.0 47.8 3.7
8/27/21 - 0500 60.4 58.6 69 49.1 0.00 84.8 25.3 0.2 S | 178 1.0 271 -60 0.0 49.6 3.7
8/27/21 - 0400 62.7 60.2 66 50.1 0.00 85.4 25.3 0.3 SSE | 164 1.1 270 -61 0.8 51.7 3.7
8/27/21 - 0300 64.0 61.6 63 50.0 0.00 85.3 25.4 0.6 SSE | 154 1.5 269 -63 1.2 53.2 3.7
8/27/21 - 0200 66.1 63.8 56 48.7 0.00 85.5 25.4 0.4 SSE | 160 1.3 268 -63 0.0 55.0 3.7
8/27/21 - 0100 66.8 65.6 52 48.4 0.00 85.9 25.5 0.3 SSE | 166 1.7 266 -65 0.3 57.6 3.7
8/27/21 - 0000 70.0 66.8 48 48.1 0.00 85.9 25.5 0.4 SSE | 151 1.6 266 -68 0.6 59.6 3.7
8/26/21 - 2300 73.9 69.7 43 47.7 0.00 85.9 25.5 0.6 S | 171 1.8 266 -73 1.0 65.2 3.7
8/26/21 - 2200 78.7 73.9 35 47.0 0.00 86.0 25.5 1.0 S | 190 5.0 264 -85 2.2 71.6 3.7
8/26/21 - 2100 82.9 78.5 29 45.5 0.00 85.8 25.5 2.1 SSW | 207 6.3 264 -94 4.1 77.5 3.8
8/26/21 - 2000 92.8 82.9 20 40.9 0.00 85.4 25.5 2.1 WSW | 248 7.5 263 -100 4.8 90.9 3.8
8/26/21 - 1900 97.0 92.6 10 28.6 0.00 85.2 25.4 2.4 WNW | 282 7.7 261 -23 5.8 97.5 3.8
8/26/21 - 1800 100.1 96.9 6 19.8 0.00 84.7 25.3 4.9 WSW | 243 11.0 261 134 7.7 105.9 3.8
8/26/21 - 1700 101.3 99.4 9 29.8 0.00 84.3 25.2 5.7 WSW | 240 11.7 261 286 8.2 112.0 3.8
8/26/21 - 1600 104.4 100.6 11 38.7 0.00 84.0 25.1 4.9 WSW | 258 11.4 262 404 8.5 113.4 3.8
8/26/21 - 1500 106.6 102.5 11 38.1 0.00 83.3 25.0 1.9 NW | 318 10.7 262 485 9.3 124.2 3.8
8/26/21 - 1400 105.6 101.4 12 39.5 0.00 82.8 24.9 1.2 NNW | 337 6.4 261 530 5.4 134.9 3.8
8/26/21 - 1300 102.1 96.8 14 42.0 0.00 82.7 24.8 1.7 NE | 44 5.8 262 545 4.4 139.5 3.8
8/26/21 - 1200 97.9 92.2 16 42.5 0.00 82.4 24.8 1.2 NE | 41 4.5 262 515 3.1 136.8 3.8
8/26/21 - 1100 92.4 85.4 22 44.6 0.00 82.5 24.8 0.9 NNE | 16 4.1 262 444 3.2 109.9 3.8
8/26/21 - 1000 86.1 77.2 30 46.8 0.00 82.9 24.9 0.7 NNE | 16 3.0 262 336 2.2 100.4 3.8
8/26/21 - 0900 77.2 71.7 36 47.0 0.00 82.5 25.0 0.6 NNE | 15 2.8 263 206 1.3 88.9 3.7
8/26/21 - 0800 71.6 60.9 50 46.0 0.00 83.4 25.1 0.3 E | 96 1.5 266 17 0.7 60.8 3.7
8/26/21 - 0700 61.1 59.3 58 45.2 0.00 81.6 25.1 0.3 SSE | 159 1.2 268 -45 0.5 52.7 3.7
8/26/21 - 0600 61.6 60.1 53 43.4 0.00 83.8 25.2 0.6 SSE | 156 2.0 267 -52 1.3 54.1 3.7
8/26/21 - 0500 62.6 60.9 50 42.5 0.00 83.8 25.3 0.2 S | 172 1.2 266 -51 0.8 54.3 3.7
8/26/21 - 0400 63.3 61.9 48 42.7 0.00 84.3 25.3 0.4 SSE | 166 1.7 266 -53 1.2 56.2 3.7
8/26/21 - 0300 65.0 63.1 44 42.2 0.00 84.6 25.3 0.2 SSE | 155 1.2 266 -53 0.0 55.9 3.7
8/26/21 - 0200 66.6 64.3 43 42.3 0.00 84.5 25.3 0.5 SSE | 162 1.5 266 -56 0.8 57.4 3.7
8/26/21 - 0100 67.6 65.9 40 41.8 0.00 84.5 25.3 0.3 S | 172 1.2 266 -58 0.0 59.0 3.7
8/26/21 - 0000 70.3 67.3 41 44.0 0.00 82.4 25.3 0.5 SSE | 160 2.0 266 -61 1.1 60.7 3.7
8/25/21 - 2300 73.0 70.1 35 42.3 0.00 82.9 25.4 0.7 S | 179 2.2 265 -64 1.0 64.4 3.7
8/25/21 - 2200 79.4 72.8 30 42.4 0.00 83.1 25.4 0.2 SSE | 164 2.9 264 -69 2.2 73.2 3.7
8/25/21 - 2100 82.4 79.4 27 43.5 0.00 82.8 25.4 2.9 SSW | 209 5.6 264 -76 4.3 77.2 3.7
8/25/21 - 2000 87.6 82.2 22 42.2 0.00 82.1 25.3 1.8 W | 260 5.3 264 -74 4.3 86.8 3.8
8/25/21 - 1900 93.1 87.5 23 47.2 0.00 82.4 25.3 1.9 WNW | 297 8.5 263 -4 6.5 95.8 3.8
8/25/21 - 1800 96.9 93.0 23 51.5 0.00 82.0 25.2 1.9 NW | 304 9.1 263 135 6.3 101.6 3.8
8/25/21 - 1700 100.0 95.3 15 41.3 0.00 80.9 25.1 3.3 WNW | 295 10.3 263 272 10.1 107.4 3.8
8/25/21 - 1600 99.2 95.6 13 37.2 0.00 81.2 25.0 2.3 S | 186 7.7 262 394 4.8 110.5 3.8
8/25/21 - 1500 98.1 94.3 17 43.1 0.00 82.4 25.0 2.1 ENE | 67 7.5 262 348 4.4 117.9 3.8
8/25/21 - 1400 96.2 93.9 20 46.8 0.00 84.0 24.9 2.5 NE | 43 5.4 263 466 4.1 129.3 3.8
8/25/21 - 1300 94.7 90.1 26 52.5 0.00 84.1 24.8 2.0 NE | 41 5.7 263 554 3.8 133.1 3.8
8/25/21 - 1200 90.4 85.6 31 53.4 0.00 83.0 24.8 1.4 NNE | 19 4.8 264 513 3.8 130.0 3.8
8/25/21 - 1100 86.1 79.9 37 53.7 0.00 82.1 24.8 1.2 N | 11 4.1 264 437 3.0 105.0 3.7
8/25/21 - 1000 80.2 74.3 47 55.7 0.00 82.0 24.9 0.8 NNE | 27 2.8 265 321 2.5 94.3 3.7
8/25/21 - 0900 74.6 68.3 61 56.8 0.00 82.4 25.0 0.5 N | 350 2.3 266 191 1.7 85.4 3.7
8/25/21 - 0800 68.4 59.9 77 55.8 0.00 82.9 25.0 0.2 SE | 130 0.9 270 21 1.0 64.2 3.7
8/25/21 - 0700 60.1 58.8 83 54.2 0.00 84.6 25.1 0.3 SSE | 164 1.5 271 -28 1.3 55.7 3.7
8/25/21 - 0600 60.1 59.4 82 54.2 0.00 83.1 25.1 0.2 S | 173 1.3 267 -38 0.0 53.8 3.7
8/25/21 - 0500 60.5 59.8 80 54.0 0.00 85.5 25.2 0.1 SSE | 156 1.2 262 -45 0.0 54.4 3.7
8/25/21 - 0400 61.4 60.2 79 54.3 0.00 84.7 25.2 0.3 SSE | 154 1.6 267 -48 0.0 55.5 3.7
8/25/21 - 0300 62.2 60.9 77 54.2 0.00 83.7 25.2 0.3 SSE | 168 1.1 267 -49 0.9 55.2 3.7
8/25/21 - 0200 62.9 61.8 74 54.1 0.00 83.7 25.3 0.3 SSE | 159 1.1 266 -52 0.0 55.8 3.7
8/25/21 - 0100 64.5 62.6 72 54.6 0.00 84.0 25.3 0.5 SSE | 167 1.5 269 -53 1.2 56.4 3.7
8/25/21 - 0000 66.5 64.2 69 54.7 0.00 84.0 25.3 0.2 S | 182 1.5 266 -58 0.0 58.1 3.7
8/24/21 - 2300 69.0 66.3 62 54.4 0.00 84.0 25.3 0.3 S | 180 1.7 268 -63 0.7 61.8 3.7
8/24/21 - 2200 73.3 68.5 54 53.4 0.00 84.1 25.3 0.3 SE | 142 2.5 267 -64 1.2 66.6 3.7
8/24/21 - 2100 75.6 73.2 44 51.0 0.00 82.6 25.3 1.7 SSW | 201 4.1 266 -72 2.5 69.7 3.7
8/24/21 - 2000 80.2 75.3 36 48.8 0.00 83.7 25.3 1.7 S | 172 4.1 266 -77 2.8 80.3 3.8
8/24/21 - 1900 84.3 80.0 27 45.6 0.00 83.4 25.2 2.5 S | 179 6.9 264 -9 4.2 87.6 3.8
8/24/21 - 1800 86.8 84.2 24 45.1 0.00 83.0 25.2 3.4 S | 176 7.2 264 118 5.2 93.9 3.8
8/24/21 - 1700 89.6 86.3 21 42.4 0.00 82.7 25.1 3.3 SE | 141 8.2 264 262 5.4 99.0 3.8
8/24/21 - 1600 90.8 88.7 17 38.4 0.00 82.1 24.9 3.6 ESE | 107 8.4 262 396 5.1 106.1 3.8
8/24/21 - 1500 91.1 88.1 21 44.2 0.00 82.2 24.9 2.7 ESE | 117 7.1 263 482 4.6 110.3 3.8
8/24/21 - 1400 90.5 86.3 27 49.5 0.00 81.7 24.8 2.3 NE | 50 6.2 264 536 3.5 119.5 3.8
8/24/21 - 1300 86.4 81.4 38 55.8 0.00 80.8 24.8 2.2 NE | 44 6.3 265 562 3.8 127.4 3.8
8/24/21 - 1200 81.5 78.3 47 58.1 0.00 81.5 24.8 1.9 NNE | 20 6.3 266 528 4.6 124.3 3.7
8/24/21 - 1100 78.6 75.3 52 57.9 0.00 81.3 24.8 1.7 NNE | 31 4.5 266 450 3.1 99.1 3.7
8/24/21 - 1000 75.8 69.2 59 57.0 0.00 81.6 24.8 1.0 NE | 37 2.9 266 333 2.4 91.3 3.7
8/24/21 - 0900 69.5 62.2 71 56.5 0.00 82.0 24.9 0.5 S | 170 2.9 268 221 1.9 81.1 3.7
8/24/21 - 0800 62.3 56.1 88 55.4 0.00 82.3 25.0 0.2 SSW | 208 1.8 347 56 1.4 60.0 3.7
8/24/21 - 0700 56.8 56.0 90 53.3 0.00 82.3 25.0 0.1 SSE | 155 1.1 347 -5 0.0 49.8 3.7
8/24/21 - 0600 56.9 55.5 89 53.1 0.00 82.7 25.1 0.4 SSE | 162 1.6 331 -16 0.5 49.6 3.7
8/24/21 - 0500 57.7 56.4 88 53.5 0.00 82.9 25.1 0.4 S | 184 1.4 308 -17 0.0 50.7 3.7
8/24/21 - 0400 58.4 57.4 86 53.9 0.00 85.6 25.1 0.2 SSE | 167 1.0 277 -20 0.0 51.8 3.7
8/24/21 - 0300 59.0 57.9 86 54.3 0.00 84.4 25.2 0.3 SSE | 164 1.2 255 -27 0.0 51.9 3.7
8/24/21 - 0200 60.2 58.5 83 54.3 0.00 83.4 25.2 0.6 S | 175 1.7 250 -44 1.1 53.8 3.7
8/24/21 - 0100 62.6 59.8 79 54.6 0.00 83.0 25.2 0.3 S | 181 1.8 271 -56 0.5 55.6 3.7
8/24/21 - 0000 64.6 62.3 74 55.0 0.00 82.6 25.3 0.5 SSW | 212 3.2 272 -62 2.2 59.6 3.7
8/23/21 - 2300 66.4 64.3 70 55.2 0.00 83.7 25.2 1.3 SSW | 193 5.3 271 -65 3.2 62.0 3.7
8/23/21 - 2200 68.2 66.2 66 55.3 0.00 83.7 25.3 2.1 SW | 223 4.9 270 -68 3.4 66.6 3.7
8/23/21 - 2100 71.5 68.1 61 55.8 0.00 83.7 25.3 2.9 SW | 230 6.3 268 -70 4.6 68.7 3.7
8/23/21 - 2000 76.3 71.4 55 56.4 0.00 83.4 25.2 2.9 WSW | 255 7.1 268 -70 5.3 77.8 3.7
8/23/21 - 1900 79.7 76.2 48 57.1 0.00 83.1 25.2 3.5 WSW | 245 6.9 267 -0 5.0 84.6 3.8
8/23/21 - 1800 81.3 79.4 45 56.9 0.00 82.9 25.1 3.9 WSW | 239 8.0 266 137 6.3 89.4 3.8
8/23/21 - 1700 85.3 79.4 43 57.0 0.00 82.6 25.1 4.0 SSE | 159 9.3 266 291 6.3 94.5 3.8
8/23/21 - 1600 85.8 83.2 40 57.5 0.00 83.1 25.0 1.7 E | 80 5.4 266 411 3.6 97.5 3.8
8/23/21 - 1500 84.6 79.4 42 57.5 0.00 81.8 24.9 1.9 NE | 46 6.3 266 504 6.4 104.1 3.8
8/23/21 - 1400 80.6 78.4 46 56.8 0.00 81.8 24.9 2.7 S | 183 7.9 266 555 5.8 114.7 3.8
8/23/21 - 1300 79.0 74.5 50 56.8 0.00 81.3 24.8 2.4 SE | 131 7.8 266 571 5.5 117.6 3.8
8/23/21 - 1200 77.5 73.8 51 56.3 0.00 81.5 24.9 1.3 NNW | 338 5.3 267 466 4.4 108.2 3.7
8/23/21 - 1100 73.9 68.6 58 55.5 0.00 82.1 24.9 0.9 SE | 134 4.5 267 256 3.9 92.1 3.7
8/23/21 - 1000 68.8 65.8 64 55.0 0.00 82.0 25.0 0.8 E | 93 3.0 268 176 2.7 82.6 3.7
8/23/21 - 0900 65.9 62.3 71 54.7 0.00 82.3 25.0 0.3 NW | 326 2.1 270 92 1.6 74.3 3.7
8/23/21 - 0800 62.3 56.9 84 54.4 0.00 82.5 25.1 0.1 SSE | 147 1.3 271 42 0.0 63.0 3.7
8/23/21 - 0700 57.1 56.0 87 52.5 0.00 82.6 25.1 0.2 S | 172 1.2 258 -10 0.6 52.5 3.7
8/23/21 - 0600 57.2 56.2 86 52.4 0.00 82.7 25.1 0.2 SSE | 166 1.3 254 -25 0.0 51.2 3.7
8/23/21 - 0500 57.8 56.6 84 52.4 0.00 81.9 25.2 0.3 SSE | 158 1.4 243 -36 0.0 51.6 3.7
8/23/21 - 0400 59.0 57.5 82 52.6 0.00 83.3 25.2 0.2 S | 190 2.0 271 -46 1.3 52.5 3.7
8/23/21 - 0300 61.0 58.6 78 53.3 0.00 83.5 25.3 0.3 S | 176 1.4 273 -52 0.8 56.8 3.7
8/23/21 - 0200 61.5 60.7 77 53.8 0.00 83.9 25.3 0.8 SSW | 204 3.1 273 -57 2.7 58.4 3.7
8/23/21 - 0100 62.4 61.4 77 54.4 0.00 83.6 25.3 1.7 SW | 219 4.5 272 -60 3.3 60.1 3.7
8/23/21 - 0000 63.5 62.1 74 54.6 0.00 84.1 25.3 3.0 SW | 218 6.5 271 -63 4.1 60.8 3.7
8/22/21 - 2300 64.9 63.2 72 55.0 0.00 83.8 25.3 2.9 SW | 224 6.6 271 -66 4.9 62.4 3.7
8/22/21 - 2200 66.8 64.8 68 55.0 0.00 84.0 25.3 3.6 SW | 234 7.6 270 -67 4.7 64.5 3.7
8/22/21 - 2100 69.6 66.7 63 54.9 0.00 84.0 25.3 3.9 WSW | 239 8.1 269 -70 5.3 67.9 3.7
8/22/21 - 2000 73.6 69.5 56 55.3 0.00 83.7 25.3 3.7 WSW | 244 7.9 268 -67 6.0 74.2 3.7
8/22/21 - 1900 76.5 73.3 51 55.4 0.00 83.3 25.3 4.4 SW | 223 11.9 267 6 7.0 81.1 3.7
8/22/21 - 1800 78.6 75.6 48 56.0 0.00 82.8 25.3 5.2 SW | 217 10.1 267 152 7.5 86.8 3.8
8/22/21 - 1700 79.4 77.9 46 56.2 0.00 82.9 25.1 4.6 S | 189 11.0 266 309 7.9 90.2 3.8
8/22/21 - 1600 81.3 78.6 44 56.0 0.00 82.1 25.0 5.3 S | 178 10.0 266 443 7.6 95.8 3.8
8/22/21 - 1500 83.6 80.9 40 55.8 0.00 82.2 25.0 2.6 E | 98 8.9 266 523 5.7 103.3 3.8
8/22/21 - 1400 82.2 78.8 41 54.7 0.00 81.8 24.9 1.8 E | 100 6.2 266 578 3.9 118.1 3.8
8/22/21 - 1300 79.4 72.8 47 54.7 0.00 82.0 24.9 1.6 W | 277 5.9 266 591 4.7 118.9 3.7
8/22/21 - 1200 74.3 70.9 54 55.0 0.00 82.1 24.9 1.7 N | 1 5.7 267 390 4.7 111.1 3.7
8/22/21 - 1100 71.4 68.6 58 55.1 0.00 82.0 25.0 0.9 NW | 325 4.3 268 193 3.6 88.1 3.7
8/22/21 - 1000 68.6 66.5 64 54.7 0.00 82.1 25.0 0.8 WSW | 255 3.4 268 120 3.0 81.5 3.7
8/22/21 - 0900 66.7 64.8 68 54.7 0.00 82.5 25.1 0.2 WNW | 293 2.0 270 48 1.8 71.9 3.7
8/22/21 - 0800 65.1 62.8 72 54.5 0.00 82.8 25.1 0.0 WNW | 290 1.4 271 18 0.8 67.9 3.7
8/22/21 - 0700 62.9 61.4 75 54.2 0.00 82.9 25.2 0.1 N | 10 1.0 271 -6 0.1 64.6 3.7
8/22/21 - 0600 61.5 58.9 80 54.2 0.00 83.2 25.2 0.0 SSE | 150 0.7 272 -11 0.0 62.0 3.7
8/22/21 - 0500 59.1 56.8 86 53.5 0.00 83.4 25.2 0.1 SSE | 149 0.9 273 -11 0.0 57.5 3.7
8/22/21 - 0400 57.8 56.9 86 53.0 0.00 83.5 25.3 0.2 S | 176 1.3 260 -22 0.6 50.9 3.7
8/22/21 - 0300 58.8 57.6 84 53.5 0.00 83.8 25.3 0.2 SSE | 162 1.3 255 -37 0.0 51.8 3.7
8/22/21 - 0200 61.6 58.5 80 53.6 0.00 83.7 25.3 0.1 SSE | 153 1.4 245 -55 0.9 55.7 3.7
8/22/21 - 0100 62.8 61.4 75 54.3 0.00 84.2 25.3 1.5 SSW | 198 5.8 273 -59 3.0 58.7 3.7
8/22/21 - 0000 63.6 62.5 73 54.2 0.00 84.1 25.4 1.9 SSW | 204 4.9 271 -61 3.9 59.4 3.7
8/21/21 - 2300 64.9 63.2 70 54.3 0.00 84.4 25.4 2.0 SSW | 211 4.7 271 -63 3.0 62.1 3.7
8/21/21 - 2200 67.2 64.8 68 55.1 0.00 84.3 25.4 1.6 SW | 232 3.8 270 -66 2.7 65.4 3.7
8/21/21 - 2100 68.2 66.8 65 55.2 0.00 84.2 25.4 1.4 SSW | 209 4.2 270 -68 3.1 67.3 3.7
8/21/21 - 2000 72.4 68.1 61 55.5 0.00 84.3 25.4 2.6 SSW | 196 5.2 269 -66 3.8 75.7 3.7
8/21/21 - 1900 75.6 72.2 52 55.2 0.00 84.1 25.3 3.7 S | 170 7.6 268 20 5.7 82.8 3.7
8/21/21 - 1800 78.4 75.5 47 55.5 0.00 83.8 25.3 3.7 S | 175 10.4 267 165 7.5 89.1 3.7
8/21/21 - 1700 81.0 78.1 45 56.4 0.00 83.6 25.3 2.2 SE | 128 6.6 266 310 5.4 91.8 3.8
8/21/21 - 1600 80.6 77.2 46 56.8 0.00 83.9 25.2 1.8 ENE | 75 6.9 266 421 3.5 100.8 3.8
8/21/21 - 1500 79.4 73.0 52 56.9 0.00 83.7 25.2 1.8 WNW | 295 7.8 266 413 5.6 102.5 3.7
8/21/21 - 1400 73.4 70.1 61 57.6 0.00 83.8 25.3 3.2 WSW | 241 9.7 268 249 5.7 95.9 3.7
8/21/21 - 1300 71.0 69.2 67 58.1 0.00 83.8 25.3 3.6 WSW | 241 7.6 268 235 5.9 93.0 3.7
8/21/21 - 1200 69.3 66.2 73 58.4 0.00 83.7 25.3 2.2 SSW | 195 5.5 269 140 4.0 86.6 3.7
8/21/21 - 1100 68.7 66.2 72 58.2 0.00 84.0 25.3 1.2 ESE | 122 4.2 270 93 2.8 83.0 3.7
8/21/21 - 1000 67.2 65.7 74 57.7 0.00 84.1 25.4 1.2 E | 101 4.0 270 116 2.3 81.7 3.7
8/21/21 - 0900 66.2 64.9 73 56.5 0.00 84.2 25.4 0.8 ESE | 112 3.6 270 49 2.5 74.3 3.7
8/21/21 - 0800 65.6 64.9 73 56.2 0.00 84.9 25.4 1.0 SSE | 156 3.9 271 9 2.5 69.6 3.7
8/21/21 - 0700 65.1 63.8 76 56.7 0.00 84.9 25.5 0.1 SSE | 152 1.1 271 -10 0.9 67.4 3.7
8/21/21 - 0600 64.1 63.3 77 56.3 0.00 84.8 25.5 0.3 S | 176 1.8 271 -26 1.0 64.7 3.7
8/21/21 - 0500 64.3 63.2 77 56.6 0.00 85.4 25.5 0.3 S | 181 1.7 271 -18 1.1 65.6 3.7
8/21/21 - 0400 63.6 63.2 80 57.1 0.00 85.4 25.5 1.0 SSE | 162 3.4 272 -32 2.5 63.0 3.7
8/21/21 - 0300 63.7 63.2 80 57.2 0.00 85.2 25.6 1.3 S | 186 3.6 272 -35 2.6 62.4 3.7
8/21/21 - 0200 64.3 63.0 79 57.1 0.00 85.7 25.6 0.6 SSW | 196 3.6 272 -48 2.3 61.1 3.7
8/21/21 - 0100 65.1 64.1 78 57.4 0.00 86.0 25.6 0.9 SSW | 194 5.0 273 -56 3.8 61.6 3.7
8/21/21 - 0000 66.5 64.9 74 57.3 0.00 85.8 25.6 1.8 SSW | 203 5.0 271 -58 3.8 64.3 3.7
8/20/21 - 2300 67.4 66.2 71 57.3 0.00 85.9 25.6 3.1 WSW | 237 6.1 270 -59 4.2 67.6 3.7
8/20/21 - 2200 69.5 67.3 68 57.4 0.00 86.0 25.7 3.3 SW | 236 6.7 269 -61 4.9 69.9 3.7
8/20/21 - 2100 72.1 69.4 63 57.3 0.00 85.8 25.7 2.7 WSW | 237 6.6 268 -65 4.6 72.1 3.7
8/20/21 - 2000 75.6 71.7 57 57.2 0.00 85.5 25.6 3.5 SW | 216 7.6 268 -61 5.4 79.3 3.7
8/20/21 - 1900 78.6 75.3 51 57.6 0.00 85.2 25.6 4.2 SSW | 211 8.7 267 20 6.1 85.4 3.8
8/20/21 - 1800 81.3 78.2 47 57.7 0.00 85.2 25.5 3.9 S | 177 9.9 266 169 6.5 91.8 3.8
8/20/21 - 1700 81.9 80.1 45 57.6 0.00 84.6 25.5 4.2 SSE | 168 9.7 266 320 7.4 93.9 3.8
8/20/21 - 1600 81.9 80.0 45 57.5 0.00 84.4 25.5 4.5 S | 176 10.3 266 446 7.7 100.3 3.8
8/20/21 - 1500 82.5 80.4 45 57.8 0.00 84.0 25.4 4.0 SSE | 168 9.3 266 530 6.5 109.1 3.8
8/20/21 - 1400 83.1 80.9 44 58.2 0.00 83.5 25.3 2.8 E | 100 6.9 266 578 5.1 127.1 3.8
8/20/21 - 1300 81.5 78.1 47 58.0 0.00 83.6 25.2 2.1 NE | 41 6.1 266 586 4.0 130.1 3.7
8/20/21 - 1200 79.5 75.2 50 57.1 0.00 83.1 25.2 1.8 N | 11 5.5 265 538 6.2 128.6 3.8
8/20/21 - 1100 76.8 71.5 55 56.5 0.00 83.6 25.3 1.7 N | 11 5.2 266 480 4.3 100.5 3.7
8/20/21 - 1000 71.5 67.7 62 56.3 0.00 83.9 25.3 2.1 W | 260 6.7 266 353 5.0 96.6 3.7
8/20/21 - 0900 68.0 64.4 70 55.9 0.00 83.7 25.4 2.3 WSW | 255 6.7 268 147 5.0 87.0 3.7
8/20/21 - 0800 64.5 59.4 78 55.5 0.00 84.1 25.5 1.7 SW | 224 4.1 269 13 2.9 66.4 3.7
8/20/21 - 0700 59.5 58.3 85 54.1 0.00 84.4 25.5 0.2 SSE | 159 2.0 256 -20 0.6 55.9 3.7
8/20/21 - 0600 59.5 58.5 83 53.8 0.00 84.5 25.5 0.2 SSE | 162 1.0 254 -41 0.0 54.9 3.7
8/20/21 - 0500 60.2 58.7 80 53.6 0.00 84.7 25.6 0.2 S | 175 1.2 273 -46 1.0 55.0 3.7
8/20/21 - 0400 60.9 59.8 79 53.8 0.00 84.9 25.6 0.2 SSE | 167 1.4 273 -47 0.0 54.9 3.7
8/20/21 - 0300 62.5 60.8 77 54.3 0.00 85.4 25.6 0.0 SSE | 161 0.9 273 -47 0.0 56.5 3.7
8/20/21 - 0200 63.4 62.0 73 54.1 0.00 85.3 25.7 0.3 S | 172 1.5 271 -49 1.3 57.9 3.7
8/20/21 - 0100 65.0 63.3 71 54.2 0.00 85.6 25.7 0.1 SE | 146 1.0 270 -50 0.6 58.0 3.7
8/20/21 - 0000 67.1 65.0 66 54.4 0.00 85.7 25.7 0.5 S | 180 2.5 270 -53 1.7 61.0 3.7
8/19/21 - 2300 68.3 66.8 62 54.3 0.00 86.0 25.7 1.1 SSW | 206 3.5 269 -56 2.1 61.9 3.7
8/19/21 - 2200 70.3 68.1 59 54.4 0.00 85.7 25.8 0.7 SW | 226 3.3 268 -60 2.4 67.2 3.7
8/19/21 - 2100 71.1 70.2 56 54.0 0.00 85.9 25.8 1.2 WSW | 243 5.8 268 -63 2.9 68.6 3.7
8/19/21 - 2000 73.7 70.9 52 53.6 0.00 85.6 25.8 2.2 S | 187 6.2 267 -60 4.4 75.3 3.7
8/19/21 - 1900 75.8 73.7 48 54.1 0.00 85.5 25.8 3.5 S | 173 8.8 267 10 5.8 82.0 3.8
8/19/21 - 1800 78.0 75.4 46 54.3 0.00 85.1 25.7 4.8 S | 179 10.1 266 141 6.9 87.4 3.8
8/19/21 - 1700 80.0 77.3 43 54.5 0.00 85.0 25.6 4.6 S | 183 10.9 266 284 6.5 91.6 3.8
8/19/21 - 1600 79.9 78.4 44 55.2 0.00 85.8 25.5 4.3 SSE | 164 9.9 266 406 7.1 96.9 3.8
8/19/21 - 1500 81.0 77.8 44 55.6 0.00 84.4 25.5 5.1 S | 189 11.9 266 537 8.2 105.7 3.8
8/19/21 - 1400 80.5 76.6 46 56.1 0.00 84.6 25.5 3.0 SE | 132 9.6 266 431 6.5 109.0 3.8
8/19/21 - 1300 78.8 76.4 48 56.0 0.00 84.6 25.5 3.1 SSE | 149 7.6 266 335 5.2 109.7 3.8
8/19/21 - 1200 78.0 75.2 49 55.8 0.00 84.6 25.5 2.7 SSE | 166 7.8 266 394 5.6 111.6 3.8
8/19/21 - 1100 76.1 71.5 55 56.2 0.00 84.5 25.5 2.0 SSE | 156 5.7 266 316 3.7 100.3 3.7
8/19/21 - 1000 73.8 69.8 62 57.3 0.00 84.6 25.6 1.4 ESE | 110 6.2 267 193 2.8 89.4 3.7
8/19/21 - 0900 70.0 66.7 72 59.2 0.00 85.0 25.6 0.8 ENE | 62 3.1 269 106 1.9 84.1 3.7
8/19/21 - 0800 66.9 62.2 84 59.3 0.00 85.1 25.7 0.3 SE | 138 2.2 270 18 1.7 70.6 3.7
8/19/21 - 0700 62.9 61.8 86 58.2 0.00 85.1 25.8 0.2 S | 170 1.2 260 -29 0.5 60.6 3.7
8/19/21 - 0600 65.0 62.5 83 58.4 0.00 85.5 25.8 0.6 SSW | 197 2.1 276 -42 1.3 64.4 3.7
8/19/21 - 0500 65.3 62.6 84 59.3 0.00 85.7 25.8 0.7 S | 177 2.7 273 -21 1.9 66.4 3.7
8/19/21 - 0400 64.3 62.3 84 58.4 0.00 85.9 25.9 0.3 S | 176 1.9 276 -43 1.0 60.4 3.7
8/19/21 - 0300 65.8 64.2 81 59.1 0.00 86.1 25.9 0.8 S | 186 2.9 275 -41 1.6 64.6 3.7
8/19/21 - 0200 66.6 65.6 79 59.4 0.00 86.3 25.9 1.3 S | 185 4.0 272 -32 2.6 67.8 3.7
8/19/21 - 0100 67.1 65.8 77 59.4 0.00 86.6 25.9 0.6 SSE | 157 2.9 271 -34 2.2 68.8 3.7
8/19/21 - 0000 67.0 66.2 78 59.5 0.00 86.6 26.0 0.5 SE | 132 2.7 271 -31 1.0 66.2 3.7
8/18/21 - 2300 67.8 66.7 76 59.7 0.00 86.7 26.0 0.8 SSE | 152 3.4 271 -37 1.8 69.2 3.8
8/18/21 - 2200 67.7 67.0 77 60.0 0.00 85.1 26.0 0.8 SE | 142 3.6 271 -27 1.3 70.2 3.7
8/18/21 - 2100 68.6 67.1 76 60.0 0.00 86.9 26.0 1.8 S | 191 6.2 270 -54 3.7 69.2 3.7
8/18/21 - 2000 70.6 68.4 72 60.1 0.00 86.7 26.0 1.7 SSE | 155 6.0 270 -55 4.3 73.2 3.8
8/18/21 - 1900 72.8 70.4 66 59.8 0.00 89.4 26.0 3.2 S | 173 7.8 269 -0 5.6 80.1 3.7
8/18/21 - 1800 75.3 72.4 61 59.6 0.00 87.1 26.0 3.2 SSE | 155 7.1 268 105 5.3 86.5 3.7
8/18/21 - 1700 75.1 73.7 57 58.4 0.00 87.0 26.0 4.8 S | 180 10.6 267 216 7.3 89.8 3.7
8/18/21 - 1600 75.6 73.3 57 58.0 0.00 86.8 26.0 5.5 S | 175 13.2 268 243 8.8 93.1 3.8
8/18/21 - 1500 75.8 73.3 57 58.5 0.00 86.8 26.0 4.4 SSE | 162 11.6 267 340 7.9 95.8 3.8
8/18/21 - 1400 74.7 71.6 59 58.2 0.00 86.9 26.0 5.3 SSE | 158 10.9 267 391 7.7 92.9 3.7
8/18/21 - 1300 72.9 69.6 65 59.0 0.00 87.1 26.0 5.0 SSE | 162 12.9 268 446 8.4 91.1 3.7
8/18/21 - 1200 69.8 66.8 77 60.6 0.00 87.2 26.1 3.3 S | 175 9.2 270 203 6.5 80.4 3.7
8/18/21 - 1100 67.7 66.2 86 62.4 0.01 87.9 26.1 3.1 S | 171 8.4 272 178 6.0 78.0 3.8
8/18/21 - 1000 67.4 66.2 86 62.5 0.00 87.4 26.2 2.2 SE | 141 5.5 394 88 3.5 75.2 3.7
8/18/21 - 0900 68.1 66.6 82 61.8 0.00 87.9 26.1 2.3 SE | 146 6.4 269 67 4.0 75.7 3.7
8/18/21 - 0800 66.8 66.0 86 62.1 0.00 88.2 26.1 1.4 ESE | 115 5.7 284 18 3.0 71.0 3.7
8/18/21 - 0700 67.8 66.5 81 61.1 0.00 88.1 26.2 1.2 SE | 127 5.4 240 -10 2.6 70.9 3.7
8/18/21 - 0600 68.3 67.6 75 59.8 0.00 88.2 26.2 2.0 SE | 138 8.0 271 -15 5.7 71.2 3.7
8/18/21 - 0500 68.9 67.8 75 60.0 0.00 88.6 26.3 2.3 E | 98 8.4 271 -15 4.0 71.6 3.7
8/18/21 - 0400 68.9 68.4 74 60.0 0.00 88.9 26.3 2.3 ESE | 110 7.1 270 -15 3.6 71.6 3.7
8/18/21 - 0300 68.7 67.7 75 59.9 0.00 89.0 26.3 1.1 SSE | 152 4.1 270 -16 3.3 71.8 3.7
8/18/21 - 0200 68.0 67.1 77 59.9 0.00 89.3 26.3 1.2 SSE | 154 4.1 270 -15 3.6 69.8 3.7
8/18/21 - 0100 67.3 66.5 79 60.0 0.00 89.2 26.3 2.1 SE | 139 6.2 270 -16 3.5 69.0 3.8
8/18/21 - 0000 69.1 67.0 77 60.9 0.00 89.3 26.3 0.9 ENE | 73 3.1 272 -57 3.4 66.9 3.8
8/17/21 - 2300 70.4 68.7 74 60.6 0.00 89.5 26.3 0.2 ESE | 113 1.9 271 -57 0.7 67.5 3.7
8/17/21 - 2200 72.3 70.3 69 60.8 0.00 89.6 26.4 1.2 SSE | 166 4.0 269 -60 2.4 70.1 3.7
8/17/21 - 2100 75.1 72.2 63 60.2 0.00 89.3 26.4 2.3 S | 190 5.0 268 -61 3.2 73.8 3.7
8/17/21 - 2000 77.7 74.9 56 59.9 0.00 89.3 26.4 2.4 S | 180 5.5 267 -56 4.5 80.2 3.8
8/17/21 - 1900 82.6 77.4 51 59.5 0.00 89.0 26.3 4.3 S | 172 8.7 266 29 5.7 88.3 3.8
8/17/21 - 1800 84.9 81.7 44 58.6 0.00 88.6 26.3 4.1 S | 185 10.0 266 166 7.2 93.0 3.8
8/17/21 - 1700 87.8 83.8 40 58.8 0.00 88.5 26.3 5.1 SSE | 164 10.1 265 306 7.7 98.4 3.8
8/17/21 - 1600 88.7 86.5 37 58.5 0.00 88.0 26.1 5.7 SSE | 165 12.2 265 424 7.6 105.6 3.8
8/17/21 - 1500 90.4 87.5 37 59.5 0.00 87.3 26.1 4.8 S | 177 10.5 265 500 7.1 116.3 3.8
8/17/21 - 1400 90.9 88.5 39 61.0 0.00 88.1 26.0 3.3 E | 89 10.6 265 544 5.6 126.2 3.8
8/17/21 - 1300 88.9 84.5 44 61.9 0.00 87.8 26.0 2.5 NE | 45 6.1 264 540 4.4 131.7 3.8
8/17/21 - 1200 84.8 81.7 48 61.7 0.00 87.5 26.0 2.5 NE | 44 5.1 264 498 3.5 128.3 3.8
8/17/21 - 1100 82.1 78.0 50 60.3 0.00 87.6 26.0 2.3 NE | 48 6.1 266 418 2.7 108.7 3.8
8/17/21 - 1000 78.0 73.2 62 61.7 0.00 87.7 26.1 1.7 NE | 35 4.5 266 299 2.6 105.3 3.8
8/17/21 - 0900 73.5 69.7 74 62.6 0.00 88.0 26.2 1.2 NNE | 30 4.1 268 111 1.5 88.7 3.8
8/17/21 - 0800 69.9 67.2 80 62.2 0.00 88.7 26.3 1.0 NE | 51 2.7 270 9 1.6 72.3 3.7
8/17/21 - 0700 67.3 66.4 83 61.4 0.00 88.5 26.3 0.2 E | 95 2.0 274 -32 0.6 64.4 3.7
8/17/21 - 0600 67.3 66.7 82 61.2 0.00 88.7 26.3 0.3 SE | 131 1.5 269 -44 0.0 64.2 3.7
8/17/21 - 0500 67.7 67.1 80 61.0 0.00 88.7 26.3 0.2 SE | 137 2.3 273 -45 0.2 64.5 3.7
8/17/21 - 0400 68.3 67.2 78 60.7 0.00 88.9 26.3 0.1 S | 184 1.1 272 -44 0.0 65.1 3.7
8/17/21 - 0300 68.9 67.8 77 60.7 0.00 89.4 26.4 0.1 SSE | 150 1.4 271 -46 0.0 65.7 3.7
8/17/21 - 0200 70.8 68.8 74 61.0 0.00 89.4 26.4 0.0 S | 173 0.7 270 -48 0.0 67.5 3.7
8/17/21 - 0100 71.5 70.5 69 60.2 0.00 89.5 26.4 0.3 ESE | 103 2.2 269 -51 0.3 68.2 3.7
8/17/21 - 0000 72.8 70.9 67 60.3 0.00 89.4 26.4 0.4 ESE | 106 2.6 269 -54 1.6 71.3 3.7
8/16/21 - 2300 74.4 72.7 61 59.6 0.00 89.6 26.5 0.6 ENE | 73 3.1 268 -55 2.2 71.7 3.7
8/16/21 - 2200 76.0 74.0 57 59.2 0.00 87.5 26.5 0.5 NE | 56 2.7 267 -58 1.0 74.4 3.7
8/16/21 - 2100 80.2 75.9 53 59.4 0.00 87.2 26.5 1.0 E | 79 4.0 266 -63 2.3 78.2 3.8
8/16/21 - 2000 84.9 80.1 46 59.4 0.00 88.7 26.5 1.1 ENE | 78 4.1 266 -58 2.2 87.4 3.8
8/16/21 - 1900 90.2 84.8 41 60.4 0.00 86.2 26.4 1.7 NE | 37 5.4 265 3 1.9 96.8 3.8
8/16/21 - 1800 92.1 90.3 32 57.6 0.00 86.4 26.3 3.2 S | 181 6.6 264 117 5.3 102.0 3.8
8/16/21 - 1700 93.7 91.8 28 54.8 0.00 84.5 26.3 4.0 SSW | 203 8.5 264 244 5.5 109.1 3.8
8/16/21 - 1600 96.1 92.4 28 55.8 0.00 88.4 26.2 4.6 S | 173 9.8 263 367 7.1 119.7 3.8
8/16/21 - 1500 98.6 95.9 27 57.6 0.00 88.0 26.1 3.3 ENE | 72 9.1 263 446 6.3 126.2 3.8
8/16/21 - 1400 98.0 96.2 28 58.7 0.00 87.6 26.0 2.4 ENE | 65 6.2 263 490 4.1 132.2 3.8
8/16/21 - 1300 97.2 92.9 26 55.1 0.00 84.7 26.0 1.8 ENE | 69 5.4 263 498 3.9 137.9 3.8
8/16/21 - 1200 93.0 89.0 27 52.6 0.00 85.5 26.0 1.3 ENE | 68 4.3 262 470 2.8 129.3 3.8
8/16/21 - 1100 89.0 83.5 33 54.1 0.00 86.7 26.1 1.1 NNE | 18 4.5 263 383 2.3 111.9 3.8
8/16/21 - 1000 83.6 76.9 40 53.9 0.00 87.3 26.1 1.2 SSE | 154 4.3 264 281 3.0 108.8 3.8
8/16/21 - 0900 77.0 71.7 54 55.8 0.00 87.9 26.2 1.0 SW | 232 4.0 266 110 2.6 94.4 3.8
8/16/21 - 0800 71.8 66.5 63 55.8 0.00 87.8 26.3 0.4 WSW | 239 2.5 267 6 2.3 72.4 3.7
8/16/21 - 0700 66.6 65.1 66 54.0 0.00 87.2 26.3 0.2 SE | 144 1.5 268 -37 0.0 62.0 3.7
8/16/21 - 0600 66.6 65.1 63 52.8 0.00 86.5 26.3 0.2 S | 170 1.8 268 -48 0.6 60.2 3.7
8/16/21 - 0500 67.5 66.3 60 52.8 0.00 86.4 26.4 0.2 S | 176 1.1 268 -48 0.3 61.8 3.7
8/16/21 - 0400 69.8 67.3 57 52.5 0.00 89.4 26.4 0.1 S | 176 0.8 267 -50 0.0 65.7 3.7
8/16/21 - 0300 71.2 69.7 52 52.2 0.00 89.1 26.4 0.1 ESE | 120 1.5 266 -54 0.8 66.9 </